Latest Weather Observations for Amberley

IDQ60801

Issued at 6:32 am EST Monday 26 June 2017 (issued every 30 minutes, with the page automatically refreshed every 10 minutes)

About weather observations | Map of weather stations | Latest weather observations for QLD | Other Formats
Station Details ID: 040004 Name: AMBERLEY AMO Lat: -27.63 Lon: 152.71 Height: 24.2 m
Data from the previous 72 hours. | See also: Recent months at Amberley
Date/Time
EST
Temp
°C
App
Temp
°C
Dew
Point
°C
Rel
Hum
%
Delta-T
°C
Wind Press
QNH
hPa
Press
MSL
hPa
Rain since
9am
mm
Dir  Spd
km/h
Gust
km/h
Spd
kts
Gust
kts
26/06:00am 6.3 - 6.3 100 0.0 - - - - - 1020.0 1020.0 0.0
26/05:30am 6.5 - 6.1 97 0.2 - - - - - 1019.7 1019.7 0.0
26/05:00am 6.7 - 6.5 99 0.1 - - - - - 1019.5 1019.5 0.0
26/04:30am 7.7 - 7.5 99 0.1 - - - - - 1019.5 1019.5 0.0
26/04:13am 7.1 - 6.4 95 0.3 - - - - - 1019.4 1019.4 0.0
26/04:00am 7.3 - 7.1 99 0.1 - - - - - 1019.4 1019.4 0.0
26/03:30am 8.1 - 7.7 97 0.2 - - - - - 1019.4 1019.4 0.0
26/03:03am 8.7 - 8.1 96 0.3 - - - - - 1019.3 1019.3 0.0
26/03:00am 8.8 - 8.2 96 0.3 - - - - - 1019.3 1019.3 0.0
26/02:30am 9.4 - 8.8 96 0.3 - - - - - 1019.4 1019.4 0.0
26/02:14am 9.1 - 8.5 96 0.3 - - - - - 1019.3 1019.3 0.0
26/02:00am 8.9 - 8.5 97 0.2 - - - - - 1019.2 1019.2 0.0
26/01:38am 7.8 - 7.4 97 0.2 - - - - - 1019.6 1019.6 0.0
26/01:30am 8.6 - 8.2 97 0.2 - - - - - 1019.6 1019.6 0.0
26/01:24am 9.4 - 8.6 95 0.4 - - - - - 1019.5 1019.5 0.0
26/01:01am 9.3 - 9.1 99 0.1 - - - - - 1019.6 1019.6 0.0
26/01:00am 9.5 - 9.1 97 0.2 - - - - - 1019.6 1019.6 0.0
26/12:30am 10.2 - 9.4 95 0.4 - - - - - 1019.5 1019.5 0.0
26/12:00am 10.4 - 9.4 93 0.5 - - - - - 1019.8 1019.8 0.0
 
Date/Time
EST
Temp
°C
App
Temp
°C
Dew
Point
°C
Rel
Hum
%
Delta-T
°C
Wind Press
QNH
hPa
Press
MSL
hPa
Rain since
9am
mm
Dir  Spd
km/h
Gust
km/h
Spd
kts
Gust
kts
25/11:30pm 10.6 - 9.4 92 0.6 - - - - - 1019.7 1019.7 0.0
25/11:00pm 10.0 - 8.6 91 0.7 - - - - - 1019.7 1019.7 0.0
25/10:30pm 10.6 - 9.6 93 0.5 - - - - - 1019.5 1019.5 0.0
25/10:00pm 10.7 - 9.5 92 0.6 - - - - - 1019.6 1019.6 0.0
25/09:30pm 10.6 - 10.0 96 0.3 - - - - - 1019.5 1019.5 0.0
25/09:00pm 12.0 - 11.0 94 0.5 - - - - - 1019.1 1019.1 0.0
25/08:30pm 12.5 - 10.8 89 0.9 - - - - - 1019.1 1019.1 0.0
25/08:00pm 12.5 - 11.0 90 0.8 - - - - - 1018.7 1018.7 0.0
25/07:30pm 15.4 - 12.9 85 1.4 - - - - - 1018.5 1018.5 0.0
25/07:00pm 16.4 - 12.6 78 2.1 - - - - - 1018.4 1018.4 0.0
25/06:30pm 17.5 - 12.6 73 2.7 - - - - - 1018.0 1018.0 0.0
25/06:00pm 18.7 - 13.2 70 3.1 - - - - - 1017.6 1017.6 0.0
25/05:30pm 19.4 - 13.0 66 3.6 - - - - - 1017.3 1017.3 0.0
25/05:00pm 20.4 - 12.8 61 4.3 - - - - - 1016.9 1016.9 0.0
25/04:30pm 22.0 - 10.9 49 6.1 - - - - - 1016.7 1016.7 0.0
25/04:00pm 23.1 - 8.9 40 7.6 - - - - - 1016.8 1016.8 0.0
25/03:30pm 23.5 - 8.5 38 8.0 - - - - - 1016.8 1016.8 0.0
25/03:00pm 23.7 - 7.2 34 8.6 - - - - - 1016.8 1016.8 0.0
25/02:30pm 23.4 - 7.5 36 8.3 - - - - - 1016.7 1016.7 0.0
25/02:00pm 22.9 - 8.3 39 7.7 - - - - - 1017.0 1017.0 0.0
25/01:30pm 23.1 - 8.6 39 7.7 - - - - - 1017.1 1017.1 0.0
25/01:00pm 22.8 - 10.4 45 6.8 - - - - - 1017.5 1017.5 0.0
25/12:30pm 21.5 - 11.2 52 5.7 - - - - - 1017.9 1017.9 0.0
25/12:00pm 21.4 - 10.1 48 6.1 - - - - - 1018.4 1018.4 0.0
25/11:30am 20.1 - 10.5 54 5.2 - - - - - 1019.1 1019.1 0.0
25/11:00am 18.8 - 9.7 55 4.8 - - - - - 1019.6 1019.6 0.0
25/10:30am 17.8 - 10.3 61 4.0 - - - - - 1020.1 1020.1 0.0
25/10:00am 16.9 - 9.6 62 3.8 - - - - - 1020.3 1020.3 0.0
25/09:30am 14.4 - 9.7 73 2.4 - - - - - 1020.8 1020.8 0.0
25/09:00am 12.4 - 9.4 82 1.5 - - - - - 1020.6 1020.6 0.0
25/08:30am 11.0 - 8.8 86 1.1 - - - - - 1020.3 1020.3 0.0
25/08:00am 9.3 - 8.3 93 0.5 - - - - - 1020.0 1020.0 0.0
25/07:30am 7.3 - 6.4 94 0.4 - - - - - 1019.9 1019.9 0.0
25/07:00am 5.7 - 5.2 97 0.2 - - - - - 1019.7 1019.7 0.0
25/06:31am 6.2 - 5.5 95 0.3 - - - - - 1019.3 1019.3 0.0
25/06:30am 6.2 - 5.3 94 0.4 - - - - - 1019.3 1019.3 0.0
25/06:00am 5.4 - 5.2 99 0.1 - - - - - 1019.0 1019.0 0.0
25/05:47am 5.9 - 5.2 95 0.3 - - - - - 1018.9 1018.9 0.0
25/05:30am 6.0 - 5.3 95 0.3 - - - - - 1018.9 1018.9 0.0
25/05:00am 5.8 - 5.1 95 0.3 - - - - - 1018.6 1018.6 0.0
25/04:30am 5.0 - 4.5 97 0.2 - - - - - 1018.5 1018.5 0.0
25/04:00am 6.4 - 6.2 99 0.1 - - - - - 1018.5 1018.5 0.0
25/03:44am 6.6 - 5.9 95 0.3 - - - - - 1018.5 1018.5 0.0
25/03:43am 6.6 - 5.7 94 0.4 - - - - - 1018.5 1018.5 0.0
25/03:30am 6.1 - 5.6 97 0.2 - - - - - 1018.5 1018.5 0.0
25/03:23am 6.2 - 6.0 99 0.1 - - - - - 1018.6 1018.6 0.0
25/03:21am 6.5 - 5.8 95 0.3 - - - - - 1018.6 1018.6 0.0
25/03:00am 7.0 - 6.6 97 0.2 - - - - - 1018.6 1018.6 0.0
25/02:33am 6.4 - 6.0 97 0.2 - - - - - 1018.7 1018.7 0.0
25/02:30am 6.6 - 6.2 97 0.2 - - - - - 1018.7 1018.7 0.0
25/02:16am 6.3 - 5.9 97 0.2 - - - - - 1018.6 1018.6 0.0
25/02:00am 7.4 - 6.7 95 0.3 - - - - - 1018.6 1018.6 0.0
25/01:45am 7.7 - 6.8 94 0.4 - - - - - 1018.5 1018.5 0.0
25/01:30am 6.8 - 6.1 95 0.3 - - - - - 1018.4 1018.4 0.0
25/01:00am 7.4 - 6.7 95 0.3 - - - - - 1018.6 1018.6 0.0
25/12:57am 7.4 - 7.0 97 0.2 - - - - - 1018.6 1018.6 0.0
25/12:30am 8.6 - 7.8 95 0.4 - - - - - 1018.9 1018.9 0.0
25/12:10am 8.4 - 7.6 95 0.4 - - - - - 1018.8 1018.8 0.0
25/12:00am 8.8 - 8.0 95 0.4 - - - - - 1018.8 1018.8 0.0
 
Date/Time
EST
Temp
°C
App
Temp
°C
Dew
Point
°C
Rel
Hum
%
Delta-T
°C
Wind Press
QNH
hPa
Press
MSL
hPa
Rain since
9am
mm
Dir  Spd
km/h
Gust
km/h
Spd
kts
Gust
kts
24/11:57pm 8.6 - 8.0 96 0.3 - - - - - 1018.8 1018.8 0.0
24/11:42pm 8.0 - 7.4 96 0.3 - - - - - 1018.8 1018.8 0.0
24/11:30pm 7.5 - 6.4 93 0.5 - - - - - 1018.6 1018.6 0.0
24/11:00pm 9.1 - 8.3 95 0.4 - - - - - 1018.6 1018.6 0.0
24/10:39pm 9.7 - 8.7 93 0.5 - - - - - 1018.6 1018.6 0.0
24/10:30pm 9.2 - 8.2 93 0.5 - - - - - 1018.6 1018.6 0.0
24/10:00pm 10.0 - 8.8 92 0.6 - - - - - 1018.5 1018.5 0.0
24/09:30pm 9.6 - 8.8 95 0.4 - - - - - 1018.3 1018.3 0.0
24/09:00pm 11.3 - 9.5 89 0.9 - - - - - 1018.2 1018.2 0.0
24/08:30pm 11.1 - 8.7 85 1.2 - - - - - 1017.8 1017.8 0.0
24/08:00pm 11.8 - 9.0 83 1.4 - - - - - 1017.7 1017.7 0.0
24/07:30pm 13.2 - 9.3 77 2.0 - - - - - 1017.5 1017.5 0.0
24/07:00pm 13.8 - 9.3 74 2.3 - - - - - 1017.1 1017.1 0.0
24/06:30pm 15.0 - 9.6 70 2.8 - - - - - 1016.8 1016.8 0.0
24/06:00pm 17.2 - 9.3 59 4.1 - - - - - 1016.3 1016.3 0.0
24/05:30pm 18.2 - 9.7 57 4.5 - - - - - 1015.9 1015.9 0.0
24/05:00pm 20.1 - 9.4 50 5.7 - - - - - 1015.6 1015.6 0.0
24/04:30pm 22.1 - 8.2 41 7.3 - - - - - 1015.3 1015.3 0.0
24/04:00pm 23.2 - 7.5 36 8.2 - - - - - 1015.2 1015.2 0.0
24/03:30pm 23.9 - 6.1 31 9.1 - - - - - 1015.0 1015.0 0.0
24/03:00pm 23.9 - 5.5 30 9.3 - - - - - 1014.9 1014.9 0.0
24/02:30pm 23.8 - 5.9 31 9.1 - - - - - 1014.9 1014.9 0.0
24/02:00pm 24.0 - 5.1 29 9.5 - - - - - 1014.9 1014.9 0.0
24/01:30pm 23.4 - 4.7 29 9.3 - - - - - 1015.1 1015.1 0.0
24/01:00pm 22.4 - 5.7 33 8.4 - - - - - 1015.3 1015.3 0.0
24/12:30pm 22.7 - 5.6 33 8.6 - - - - - 1015.8 1015.8 0.0
24/12:00pm 21.7 - 7.9 41 7.2 - - - - - 1016.4 1016.4 0.0
24/11:30am 20.4 - 8.8 47 6.1 - - - - - 1016.9 1016.9 0.0
24/11:00am 19.0 - 8.6 51 5.4 - - - - - 1017.8 1017.8 0.0
24/10:30am 16.8 - 8.6 58 4.2 - - - - - 1018.3 1018.3 0.0
24/10:00am 15.5 - 8.8 64 3.4 - - - - - 1018.7 1018.7 0.0
24/09:30am 13.1 - 9.6 79 1.8 - - - - - 1018.8 1018.8 0.0
24/09:00am 10.8 - 9.0 89 0.9 - - - - - 1018.6 1018.6 0.0
24/08:30am 9.6 - 8.4 92 0.6 - - - - - 1018.5 1018.5 0.0
24/08:00am 8.2 - 7.1 93 0.5 - - - - - 1018.4 1018.4 0.0
24/07:30am 6.6 - 5.9 95 0.3 - - - - - 1018.1 1018.1 0.0
24/07:00am 5.7 - 5.0 95 0.3 - - - - - 1017.8 1017.8 0.0
24/06:30am 5.1 - 4.6 97 0.2 - - - - - 1017.5 1017.5 0.0
24/06:00am 4.9 - 4.4 97 0.2 - - - - - 1017.1 1017.1 0.0
24/05:30am 5.0 - 4.3 95 0.3 - - - - - 1016.9 1016.9 0.0
24/05:00am 5.6 - 5.4 99 0.1 - - - - - 1016.5 1016.5 0.0
24/04:30am 5.0 - 4.5 97 0.2 - - - - - 1016.5 1016.5 0.0
24/04:00am 5.4 - 4.9 97 0.2 - - - - - 1016.4 1016.4 0.0
24/03:30am 5.3 - 4.8 97 0.2 - - - - - 1016.7 1016.7 0.0
24/03:27am 5.5 - 4.8 95 0.3 - - - - - 1016.7 1016.7 0.0
24/03:18am 5.7 - 5.5 99 0.1 - - - - - 1016.8 1016.8 0.0
24/03:00am 5.6 - 5.4 99 0.1 - - - - - 1016.8 1016.8 0.0
24/02:30am 6.1 - 5.4 95 0.3 - - - - - 1016.9 1016.9 0.0
24/02:17am 6.0 - 5.5 97 0.2 - - - - - 1016.9 1016.9 0.0
24/02:00am 5.7 - 5.7 100 0.0 - - - - - 1017.1 1017.1 0.0
24/01:47am 6.6 - 6.2 97 0.2 - - - - - 1017.3 1017.3 0.0
24/01:31am 6.8 - 6.6 99 0.1 - - - - - 1017.6 1017.6 0.0
24/01:30am 7.0 - 6.6 97 0.2 - - - - - 1017.7 1017.7 0.0
24/01:00am 6.9 - 6.5 97 0.2 - - - - - 1017.8 1017.8 0.0
24/12:58am 7.0 - 6.6 97 0.2 - - - - - 1017.8 1017.8 0.0
24/12:30am 7.3 - 6.6 95 0.3 - - - - - 1017.7 1017.7 0.0
24/12:14am 8.2 - 8.0 99 0.1 - - - - - 1017.7 1017.7 0.0
24/12:00am 7.6 - 7.0 96 0.3 - - - - - 1017.8 1017.8 0.0
 
Date/Time
EST
Temp
°C
App
Temp
°C
Dew
Point
°C
Rel
Hum
%
Delta-T
°C
Wind Press
QNH
hPa
Press
MSL
hPa
Rain since
9am
mm
Dir  Spd
km/h
Gust
km/h
Spd
kts
Gust
kts
23/11:30pm 7.7 - 6.8 94 0.4 - - - - - 1018.3 1018.3 0.0
23/11:18pm 7.4 - 7.0 97 0.2 - - - - - 1018.5 1018.5 0.0
23/11:00pm 8.7 - 8.1 96 0.3 - - - - - 1018.7 1018.7 0.0
23/10:36pm 8.9 - 8.5 97 0.2 - - - - - 1018.6 1018.6 0.0
23/10:30pm 9.1 - 8.3 95 0.4 - - - - - 1018.6 1018.6 0.0
23/10:01pm 9.3 - 8.9 97 0.2 - - - - - 1018.8 1018.8 0.0
23/10:00pm 9.4 - 9.0 97 0.2 - - - - - 1018.8 1018.8 0.0
23/09:30pm 10.2 - 9.6 96 0.3 - - - - - 1019.0 1019.0 0.0
23/09:00pm 10.4 - 9.2 92 0.6 - - - - - 1019.1 1019.1 0.0
23/08:30pm 11.1 - 9.7 91 0.7 - - - - - 1018.9 1018.9 0.0
23/08:00pm 11.1 - 9.7 91 0.7 - - - - - 1018.8 1018.8 0.0
23/07:30pm 11.7 - 9.7 87 1.0 - - - - - 1018.7 1018.7 0.0
23/07:00pm 12.9 - 10.6 86 1.2 - - - - - 1018.4 1018.4 0.0
23/06:30pm 14.0 - 10.6 80 1.8 - - - - - 1018.1 1018.1 0.0
23/06:00pm 15.1 - 10.3 73 2.5 - - - - - 1018.0 1018.0 0.0
23/05:30pm 16.4 - 9.9 65 3.4 - - - - - 1017.9 1017.9 0.0
23/05:00pm 18.8 - 10.0 56 4.7 - - - - - 1017.8 1017.8 0.0
23/04:30pm 20.4 - 8.8 47 6.1 - - - - - 1017.6 1017.6 0.0
23/04:00pm 21.9 - 8.9 43 6.9 - - - - - 1017.5 1017.5 0.0
23/03:30pm 23.1 - 6.8 35 8.4 - - - - - 1017.5 1017.5 0.0
23/03:00pm 23.4 - 6.4 33 8.7 - - - - - 1017.8 1017.8 0.0
23/02:30pm 23.6 - 6.7 33 8.7 - - - - - 1018.2 1018.2 0.0
23/02:00pm 22.7 - 6.4 35 8.3 - - - - - 1018.5 1018.5 0.0
23/01:30pm 22.5 - 9.0 42 7.2 - - - - - 1019.0 1019.0 0.0
23/01:00pm 21.8 - 10.2 47 6.3 - - - - - 1019.6 1019.6 0.0
23/12:30pm 21.1 - 10.2 49 5.9 - - - - - 1020.2 1020.2 0.0
23/12:00pm 20.5 - 10.8 53 5.3 - - - - - 1020.8 1020.8 0.0
23/11:30am 19.4 - 10.9 58 4.6 - - - - - 1021.5 1021.5 0.0
23/11:00am 17.9 - 11.2 65 3.6 - - - - - 1022.3 1022.3 0.0
23/10:30am 17.1 - 11.1 68 3.2 - - - - - 1022.9 1022.9 0.0
23/10:00am 15.2 - 10.6 74 2.4 - - - - - 1023.4 1023.4 0.0
23/09:30am 13.5 - 10.4 81 1.6 - - - - - 1023.7 1023.7 0.0
23/09:00am 12.0 - 9.8 86 1.1 - - - - - 1023.7 1023.7 0.0
23/08:30am 9.3 - 8.7 96 0.3 - - - - - 1023.2 1023.2 0.0
23/08:26am 8.8 - 8.4 97 0.2 - - - - - 1023.3 1023.3 0.0
23/08:00am 7.4 - 7.2 99 0.1 - - - - - 1023.2 1023.2 0.0
23/07:30am 6.3 - 5.8 97 0.2 - - - - - 1023.3 1023.3 0.0
23/07:00am 5.5 - 5.0 97 0.2 - - - - - 1022.9 1022.9 0.0
23/06:55am 5.5 - 4.8 95 0.3 - - - - - 1022.9 1022.9 0.0
23/06:38am 4.7 - 4.0 95 0.3 - - - - - 1022.8 1022.8 0.0

Other Formats:

Comma delimited format used in spreadsheet applications
http://www.bom.gov.au/fwo/IDQ60801/IDQ60801.94568.axf

JavaScript Object Notation format (JSON) in row-major order
http://www.bom.gov.au/fwo/IDQ60801/IDQ60801.94568.json